Time;durP1;ratioP1;P1;durP2;ratioP2;P2;SDS_P1;SDS_P2;PMS_P1;PMS_P2;Temp;Humidity;BMP_temperature;BMP_pressure;BME280_temperature;BME280_humidity;BME280_pressure;Samples;Min_cycle;Max_cycle;Signal;HPM_P1;HPM_P2
2021/05/18 00:00:51;;;;;;;15.30;10.20;;;9.70;99.90;;;;;;4965537;28;20042;-61
2021/05/18 00:03:18;;;;;;;16.92;11.68;;;9.60;99.90;;;;;;4966234;28;20030;-61
2021/05/18 00:05:53;;;;;;;14.73;10.90;;;9.60;99.90;;;;;;4964935;28;20035;-61
2021/05/18 00:08:21;;;;;;;15.82;10.70;;;9.60;99.90;;;;;;4965141;28;20023;-61
2021/05/18 00:13:38;;;;;;;14.93;10.50;;;9.60;99.90;;;;;;4964765;28;20149;-61
2021/05/18 00:16:05;;;;;;;15.63;11.25;;;9.60;99.90;;;;;;4967018;28;20046;-62
2021/05/18 00:18:31;;;;;;;15.38;10.38;;;9.60;99.90;;;;;;4965301;28;20128;-61
2021/05/18 00:20:57;;;;;;;16.77;11.60;;;9.60;99.90;;;;;;4964628;28;20035;-61
2021/05/18 00:23:23;;;;;;;16.27;11.88;;;9.70;99.90;;;;;;4964778;28;20073;-62
2021/05/18 00:25:50;;;;;;;18.13;11.88;;;9.60;99.90;;;;;;4964725;28;20033;-62
2021/05/18 00:28:16;;;;;;;16.48;11.77;;;9.60;99.90;;;;;;4997379;28;20030;-61
2021/05/18 00:30:42;;;;;;;15.23;11.32;;;9.60;99.90;;;;;;4968290;28;20049;-61
2021/05/18 00:33:15;;;;;;;16.95;12.02;;;9.60;99.90;;;;;;4969438;28;20657;-61
2021/05/18 00:35:42;;;;;;;16.00;10.77;;;9.60;99.90;;;;;;4967114;28;20039;-62
2021/05/18 00:38:09;;;;;;;18.48;11.63;;;9.50;99.90;;;;;;4967906;28;20474;-62
2021/05/18 00:40:36;;;;;;;19.70;12.13;;;9.50;99.90;;;;;;4966943;28;20039;-61
2021/05/18 00:43:02;;;;;;;16.63;11.25;;;9.50;99.90;;;;;;4967888;28;20071;-62
2021/05/18 00:45:43;;;;;;;18.50;12.25;;;9.50;99.90;;;;;;4968333;28;20145;-61
2021/05/18 00:48:10;;;;;;;17.70;12.00;;;9.50;99.90;;;;;;4970057;28;20620;-61
2021/05/18 00:50:39;;;;;;;17.67;11.73;;;9.40;99.90;;;;;;4970226;28;20034;-62
2021/05/18 00:53:05;;;;;;;18.57;12.80;;;9.40;99.90;;;;;;4967122;28;20618;-62
2021/05/18 01:00:44;;;;;;;18.48;12.52;;;9.50;99.90;;;;;;4968034;28;20137;-61
2021/05/18 01:03:11;;;;;;;19.25;13.95;;;9.50;99.90;;;;;;4968578;28;20126;-61
2021/05/18 01:08:22;;;;;;;23.33;15.77;;;9.50;99.90;;;;;;4967887;28;20077;-61
2021/05/18 01:10:49;;;;;;;21.38;13.30;;;9.60;99.90;;;;;;4970001;28;20113;-62
2021/05/18 01:13:15;;;;;;;21.73;13.75;;;9.50;99.90;;;;;;4966321;28;20073;-61
2021/05/18 01:15:41;;;;;;;25.52;15.52;;;9.50;99.90;;;;;;4968119;28;20491;-61
2021/05/18 01:18:08;;;;;;;21.15;13.57;;;9.60;99.90;;;;;;4968232;28;20513;-61
2021/05/18 01:20:41;;;;;;;24.63;14.93;;;9.60;99.90;;;;;;4968016;28;20049;-61
2021/05/18 01:23:08;;;;;;;28.60;15.55;;;9.60;99.90;;;;;;4965463;28;20052;-61
2021/05/18 01:25:34;;;;;;;22.52;14.93;;;9.70;99.90;;;;;;4967126;28;20061;-62
2021/05/18 01:28:00;;;;;;;22.45;14.52;;;9.60;99.90;;;;;;4967202;28;20034;-61
2021/05/18 01:30:27;;;;;;;21.48;14.50;;;9.60;99.90;;;;;;4969584;28;20026;-61
2021/05/18 01:32:53;;;;;;;23.65;15.55;;;9.50;99.90;;;;;;4997076;28;20034;-61
2021/05/18 01:35:19;;;;;;;25.00;15.32;;;9.70;99.90;;;;;;4965281;28;20045;-61
2021/05/18 01:37:46;;;;;;;22.52;15.50;;;9.70;99.90;;;;;;4966399;28;20031;-61
2021/05/18 01:42:48;;;;;;;29.45;16.02;;;9.70;99.90;;;;;;4969391;28;20027;-61
2021/05/18 01:45:17;;;;;;;26.63;17.30;;;9.70;99.90;;;;;;4966988;28;20118;-61
2021/05/18 01:47:49;;;;;;;25.70;15.50;;;9.70;99.90;;;;;;4968105;28;20537;-61
2021/05/18 01:50:16;;;;;;;26.55;17.23;;;9.70;99.90;;;;;;4967454;28;20171;-61
2021/05/18 01:52:42;;;;;;;27.17;18.02;;;9.70;99.90;;;;;;4965572;28;20547;-62
2021/05/18 01:55:09;;;;;;;29.13;19.08;;;9.70;99.90;;;;;;4965404;28;20042;-61
2021/05/18 01:57:35;;;;;;;26.35;17.00;;;9.70;99.90;;;;;;4965599;28;21137;-62
2021/05/18 02:00:03;;;;;;;28.85;19.17;;;9.80;99.90;;;;;;4969231;28;20038;-62
2021/05/18 02:02:29;;;;;;;30.40;18.75;;;9.80;99.90;;;;;;4964545;28;20062;-62
2021/05/18 02:04:58;;;;;;;28.48;18.63;;;9.70;99.90;;;;;;4963710;28;20054;-62
2021/05/18 02:07:33;;;;;;;28.23;19.58;;;9.80;99.90;;;;;;4964014;28;20027;-62
2021/05/18 02:09:59;;;;;;;28.60;19.58;;;9.80;99.90;;;;;;4966677;28;20477;-61
2021/05/18 02:12:25;;;;;;;32.20;20.17;;;9.80;99.90;;;;;;4966195;28;20019;-62
2021/05/18 02:15:12;;;;;;;31.15;19.80;;;9.80;99.90;;;;;;4968337;28;20046;-62
2021/05/18 02:17:45;;;;;;;33.13;19.30;;;9.80;99.90;;;;;;4965358;28;20037;-61
2021/05/18 02:25:57;;;;;;;30.67;19.50;;;9.80;99.90;;;;;;4965995;28;20046;-62
2021/05/18 02:28:23;;;;;;;27.33;19.02;;;9.90;99.90;;;;;;4966236;28;20029;-62
2021/05/18 02:30:50;;;;;;;27.60;18.98;;;9.90;99.90;;;;;;4964756;28;20249;-62
2021/05/18 02:33:16;;;;;;;25.05;17.27;;;9.90;99.90;;;;;;4966863;28;20057;-61
2021/05/18 02:35:42;;;;;;;26.58;16.38;;;10.00;99.90;;;;;;4965289;28;20030;-61
2021/05/18 02:38:08;;;;;;;20.13;13.02;;;10.00;99.90;;;;;;4966984;28;20566;-61
2021/05/18 02:40:36;;;;;;;19.23;12.73;;;10.00;99.90;;;;;;4965579;28;20042;-61
2021/05/18 02:43:03;;;;;;;16.77;11.55;;;9.90;99.90;;;;;;4965628;28;21033;-62
2021/05/18 02:45:39;;;;;;;13.93;10.20;;;9.90;99.90;;;;;;4966713;28;20469;-62
2021/05/18 02:51:08;;;;;;;13.45;9.15;;;9.90;99.90;;;;;;4983127;28;20559;-61
2021/05/18 02:53:33;;;;;;;13.90;9.85;;;9.90;99.90;;;;;;4968492;28;20042;-62
2021/05/18 02:56:20;;;;;;;12.35;8.82;;;9.90;99.90;;;;;;4966273;28;20041;-61
2021/05/18 02:59:00;;;;;;;11.85;7.88;;;9.90;99.90;;;;;;4965175;28;20026;-62
2021/05/18 03:01:26;;;;;;;12.95;9.02;;;9.90;99.90;;;;;;4964023;28;20556;-62
2021/05/18 03:03:53;;;;;;;12.57;7.65;;;9.90;99.90;;;;;;4967088;28;20205;-62
2021/05/18 03:06:19;;;;;;;16.00;8.63;;;9.90;99.90;;;;;;4966190;28;20034;-62
2021/05/18 03:08:45;;;;;;;12.93;8.52;;;9.90;99.90;;;;;;4966631;28;20050;-61
2021/05/18 03:11:11;;;;;;;12.60;9.15;;;9.90;99.90;;;;;;4966905;28;20062;-61
2021/05/18 03:13:38;;;;;;;12.05;8.88;;;9.90;99.90;;;;;;4964723;28;20054;-62
2021/05/18 03:16:04;;;;;;;12.05;8.25;;;9.90;99.90;;;;;;4965349;28;20084;-62
2021/05/18 03:18:30;;;;;;;12.02;8.10;;;10.00;99.90;;;;;;4966205;28;20093;-62
2021/05/18 03:20:56;;;;;;;10.98;7.93;;;10.00;99.90;;;;;;4965433;28;20050;-62
2021/05/18 03:23:23;;;;;;;11.07;8.07;;;9.90;99.90;;;;;;4966693;28;20050;-62
2021/05/18 03:25:49;;;;;;;10.55;7.47;;;9.90;99.90;;;;;;4967534;28;20466;-62
2021/05/18 03:28:15;;;;;;;11.65;7.50;;;9.90;99.90;;;;;;4965679;28;20340;-62
2021/05/18 03:36:11;;;;;;;11.38;8.20;;;9.90;99.90;;;;;;4982598;28;20047;-62
2021/05/18 03:38:46;;;;;;;11.45;8.40;;;10.00;99.90;;;;;;4983567;28;20516;-62
2021/05/18 03:41:22;;;;;;;12.13;8.93;;;9.90;99.90;;;;;;4974284;28;20476;-62
2021/05/18 03:44:01;;;;;;;11.38;7.72;;;9.80;99.90;;;;;;4966169;28;20034;-62
2021/05/18 03:52:19;;;;;;;11.50;7.95;;;9.90;99.90;;;;;;4996068;28;20027;-62
2021/05/18 03:52:19;;;;;;;23.55;8.32;;;9.90;99.90;;;;;;4964032;28;20424;-62
2021/05/18 03:54:54;;;;;;;11.50;7.32;;;9.90;99.90;;;;;;4965245;28;20659;-62
2021/05/18 04:19:08;;;;;;;8.43;5.38;;;10.10;99.90;;;;;;4967668;28;20643;-69
2021/05/18 04:51:09;;;;;;;7.18;4.45;;;10.60;99.90;;;;;;4967336;28;20023;-70
2021/05/18 05:07:10;;;;;;;8.13;4.18;;;10.80;99.90;;;;;;4968468;28;20168;-70
2021/05/18 05:09:42;;;;;;;7.05;4.30;;;10.80;99.90;;;;;;4967374;28;20095;-70
2021/05/18 05:15:01;;;;;;;7.57;5.10;;;10.80;99.90;;;;;;4968514;28;20041;-70
2021/05/18 05:17:26;;;;;;;6.93;4.47;;;10.80;99.90;;;;;;4970031;28;20023;-70
2021/05/18 05:19:52;;;;;;;6.70;4.40;;;10.90;99.90;;;;;;4969777;28;20031;-70
2021/05/18 05:22:18;;;;;;;6.97;5.07;;;10.90;99.90;;;;;;4968804;28;20121;-70
2021/05/18 05:24:44;;;;;;;9.32;5.35;;;10.80;99.90;;;;;;4969636;28;20518;-70
2021/05/18 05:27:11;;;;;;;7.22;4.78;;;10.80;99.90;;;;;;4967863;28;20041;-70
2021/05/18 05:29:36;;;;;;;6.07;4.35;;;10.90;99.90;;;;;;4970145;28;20030;-70
2021/05/18 05:32:02;;;;;;;6.22;4.38;;;10.90;99.90;;;;;;4969827;28;20029;-69
2021/05/18 05:34:28;;;;;;;5.53;3.70;;;10.90;99.90;;;;;;4968385;28;20073;-70
2021/05/18 05:36:54;;;;;;;5.50;3.80;;;10.90;99.90;;;;;;4969507;28;20440;-70
2021/05/18 05:39:23;;;;;;;7.28;4.30;;;10.90;99.90;;;;;;4969614;28;20041;-70
2021/05/18 05:41:51;;;;;;;6.47;4.25;;;10.80;99.90;;;;;;4968732;28;20067;-70
2021/05/18 05:44:17;;;;;;;6.20;4.20;;;10.90;99.90;;;;;;4969888;28;20031;-70
2021/05/18 05:46:43;;;;;;;6.75;4.75;;;10.90;99.90;;;;;;4969032;28;20053;-70
2021/05/18 05:49:12;;;;;;;7.43;5.18;;;11.00;99.90;;;;;;4967765;28;20097;-70
2021/05/18 05:51:38;;;;;;;6.60;4.85;;;10.90;99.90;;;;;;4969872;28;20168;-70
2021/05/18 05:54:04;;;;;;;10.05;5.57;;;11.00;99.90;;;;;;4968498;28;20039;-70
2021/05/18 05:56:30;;;;;;;6.22;4.30;;;11.00;99.90;;;;;;4968934;28;20385;-70
2021/05/18 05:58:59;;;;;;;7.63;5.55;;;11.00;99.90;;;;;;4969172;28;20039;-70
2021/05/18 06:01:25;;;;;;;5.78;4.40;;;11.00;99.90;;;;;;4969391;28;20139;-70
2021/05/18 06:03:50;;;;;;;12.18;6.35;;;11.10;99.90;;;;;;4968554;28;20296;-70
2021/05/18 06:06:16;;;;;;;8.32;5.40;;;11.10;99.90;;;;;;4967828;28;20117;-70
2021/05/18 06:08:45;;;;;;;9.00;4.63;;;11.10;99.90;;;;;;4967747;28;20040;-69
2021/05/18 06:14:06;;;;;;;5.00;3.53;;;11.30;99.90;;;;;;4968754;28;20023;-70
2021/05/18 06:48:48;;;;;;;4.28;3.28;;;12.30;99.90;;;;;;4967555;28;20026;-70
2021/05/18 06:51:14;;;;;;;4.35;3.25;;;12.30;99.90;;;;;;4968044;28;20832;-70
2021/05/18 06:53:40;;;;;;;3.85;3.35;;;12.30;99.90;;;;;;4967882;28;20106;-70
2021/05/18 06:56:06;;;;;;;3.97;3.38;;;12.40;99.90;;;;;;4966711;28;20034;-70
2021/05/18 07:01:07;;;;;;;5.35;3.65;;;12.60;99.90;;;;;;4966639;28;20133;-70
2021/05/18 07:03:45;;;;;;;5.50;4.05;;;12.60;99.90;;;;;;4967146;28;20026;-70
2021/05/18 07:11:12;;;;;;;5.20;3.78;;;12.20;99.90;;;;;;4967836;28;20037;-70
2021/05/18 07:13:38;;;;;;;5.05;3.90;;;12.10;99.90;;;;;;4965213;28;20105;-70
2021/05/18 07:16:04;;;;;;;5.97;4.22;;;12.00;99.90;;;;;;4966949;28;20046;-70
2021/05/18 07:18:30;;;;;;;6.70;4.20;;;11.90;99.90;;;;;;4964874;28;20061;-70
2021/05/18 07:20:56;;;;;;;5.60;3.97;;;11.90;99.90;;;;;;4966887;28;20082;-70
2021/05/18 07:23:24;;;;;;;7.78;4.28;;;11.90;99.90;;;;;;4965111;28;20498;-70
2021/05/18 07:25:50;;;;;;;8.57;4.78;;;11.80;99.90;;;;;;4966677;28;20034;-70
2021/05/18 07:28:17;;;;;;;4.97;4.15;;;11.90;99.90;;;;;;4967640;28;20035;-71
2021/05/18 07:30:43;;;;;;;8.93;5.10;;;11.80;99.90;;;;;;4967845;28;20457;-70
2021/05/18 07:33:09;;;;;;;7.43;5.30;;;11.90;99.90;;;;;;4967016;28;20022;-70
2021/05/18 07:35:36;;;;;;;10.40;6.30;;;11.90;99.90;;;;;;4967753;28;20458;-70
2021/05/18 07:38:03;;;;;;;9.27;5.90;;;11.90;99.90;;;;;;4971106;28;20026;-70
2021/05/18 07:40:29;;;;;;;8.35;6.43;;;12.00;99.90;;;;;;4971821;28;20052;-70
2021/05/18 07:42:55;;;;;;;10.60;6.85;;;12.00;99.90;;;;;;4972159;28;20031;-70
2021/05/18 07:45:26;;;;;;;13.20;8.45;;;12.10;99.90;;;;;;4969453;28;20525;-70
2021/05/18 07:47:59;;;;;;;10.52;8.30;;;12.00;99.90;;;;;;4969604;28;20038;-70
2021/05/18 07:50:41;;;;;;;9.15;6.68;;;12.00;99.90;;;;;;4971548;28;20129;-70
2021/05/18 08:06:52;;;;;;;10.18;6.40;;;11.90;99.90;;;;;;4969047;28;20098;-70
2021/05/18 08:09:20;;;;;;;10.07;6.45;;;11.90;99.90;;;;;;4970378;28;20262;-70
2021/05/18 08:11:46;;;;;;;7.38;5.60;;;11.90;99.90;;;;;;4970946;28;20038;-70
2021/05/18 08:14:11;;;;;;;7.95;5.63;;;11.90;99.90;;;;;;4971472;28;20449;-70
2021/05/18 10:35:54;;;;;;;7.65;2.70;;;14.00;99.90;;;;;;4947067;28;20374;-70
2021/05/18 10:38:23;;;;;;;5.53;2.50;;;14.10;99.90;;;;;;4946598;28;20585;-70
2021/05/18 10:40:52;;;;;;;7.43;2.50;;;14.20;99.90;;;;;;4949261;28;20145;-70
2021/05/18 10:43:23;;;;;;;6.63;2.60;;;14.30;99.90;;;;;;4948920;28;20035;-70
2021/05/18 10:46:03;;;;;;;8.45;2.55;;;14.50;99.90;;;;;;4948660;28;20130;-71
2021/05/18 10:48:34;;;;;;;6.32;2.90;;;14.70;99.90;;;;;;4948456;28;20469;-71
2021/05/18 10:51:25;;;;;;;5.50;2.22;;;14.80;99.90;;;;;;4948649;28;20426;-71
2021/05/18 10:54:23;;;;;;;10.57;2.58;;;14.80;99.90;;;;;;4948797;28;20038;-70
2021/05/18 10:56:55;;;;;;;7.32;2.95;;;14.80;99.90;;;;;;4949644;28;20450;-70
2021/05/18 10:59:22;;;;;;;7.68;2.42;;;15.00;99.90;;;;;;4954225;28;20035;-71
2021/05/18 11:01:49;;;;;;;8.40;2.97;;;15.20;99.90;;;;;;4947300;28;20070;-71
2021/05/18 11:04:15;;;;;;;8.48;2.58;;;15.40;99.90;;;;;;4948954;28;20027;-70
2021/05/18 11:06:56;;;;;;;5.90;1.85;;;15.50;99.90;;;;;;4949061;28;20023;-70
2021/05/18 11:09:23;;;;;;;7.72;2.22;;;15.50;99.90;;;;;;4947471;28;20038;-71
2021/05/18 11:11:58;;;;;;;9.90;3.08;;;15.50;99.90;;;;;;4948486;28;20031;-70
2021/05/18 11:14:34;;;;;;;9.40;2.67;;;15.50;99.90;;;;;;4948152;28;20023;-71
2021/05/18 11:17:28;;;;;;;7.18;1.98;;;15.60;99.90;;;;;;4948228;28;20033;-71
2021/05/18 11:20:08;;;;;;;6.60;2.10;;;15.60;99.90;;;;;;4949992;28;20047;-71
2021/05/18 11:25:52;;;;;;;7.70;2.38;;;15.70;99.90;;;;;;4948761;28;20483;-71
2021/05/18 11:28:22;;;;;;;7.63;2.17;;;15.80;99.90;;;;;;4948636;28;20019;-70
2021/05/18 11:31:08;;;;;;;6.28;2.22;;;15.70;99.90;;;;;;4947027;28;20039;-73
2021/05/18 11:33:43;;;;;;;9.80;2.38;;;15.60;99.90;;;;;;4947978;28;20062;-72
2021/05/18 11:36:15;;;;;;;7.72;2.63;;;15.50;99.90;;;;;;4946939;28;20305;-70
2021/05/18 11:38:54;;;;;;;7.50;2.08;;;15.40;99.90;;;;;;4977687;28;20023;-71
2021/05/18 11:41:28;;;;;;;6.28;2.20;;;15.50;99.90;;;;;;4948142;28;20502;-71
2021/05/18 11:43:59;;;;;;;8.73;2.72;;;15.30;99.90;;;;;;4947778;28;20031;-71
2021/05/18 11:46:27;;;;;;;5.70;1.58;;;15.30;99.90;;;;;;4949045;28;20125;-71
2021/05/18 11:49:04;;;;;;;5.68;2.08;;;15.20;99.90;;;;;;4947601;28;20494;-71
2021/05/18 11:51:39;;;;;;;8.20;2.25;;;15.40;99.90;;;;;;4946293;28;20092;-71
2021/05/18 11:54:06;;;;;;;15.57;2.65;;;15.50;99.90;;;;;;4947627;28;20063;-71
2021/05/18 11:56:35;;;;;;;8.25;2.38;;;15.70;99.90;;;;;;4948451;28;20285;-71
2021/05/18 11:59:14;;;;;;;5.40;2.13;;;15.90;99.90;;;;;;4947726;28;20031;-71
2021/05/18 12:02:05;;;;;;;7.27;2.00;;;16.00;99.90;;;;;;4948518;28;20035;-71
2021/05/18 12:04:32;;;;;;;6.35;2.58;;;16.20;99.90;;;;;;4948033;28;20443;-71
2021/05/18 12:06:59;;;;;;;3.63;1.80;;;16.30;99.90;;;;;;4945608;28;20633;-71
2021/05/18 12:09:27;;;;;;;8.45;2.95;;;16.50;99.90;;;;;;4948442;28;20067;-71
2021/05/18 12:11:58;;;;;;;5.22;1.95;;;16.40;99.90;;;;;;4948291;28;20027;-71
2021/05/18 12:14:25;;;;;;;3.10;1.38;;;16.30;99.90;;;;;;4945625;28;20767;-71
2021/05/18 12:16:51;;;;;;;5.03;1.67;;;16.30;99.90;;;;;;4948032;28;20037;-70
2021/05/18 12:19:18;;;;;;;10.65;2.55;;;16.30;99.90;;;;;;4945193;28;20042;-71
2021/05/18 12:21:48;;;;;;;7.13;2.33;;;16.40;99.90;;;;;;4948464;28;20541;-71
2021/05/18 12:24:15;;;;;;;6.63;2.28;;;16.50;99.90;;;;;;4960184;28;20613;-71
2021/05/18 12:26:58;;;;;;;5.47;1.50;;;16.80;99.90;;;;;;4971053;28;20031;-71
2021/05/18 12:29:54;;;;;;;3.42;1.77;;;17.10;99.90;;;;;;4970692;28;20074;-71
2021/05/18 12:32:31;;;;;;;6.22;1.90;;;17.50;99.90;;;;;;4971835;28;20038;-71
2021/05/18 12:35:14;;;;;;;8.98;2.10;;;17.40;99.90;;;;;;4970624;28;20390;-70
2021/05/18 12:37:47;;;;;;;3.72;1.65;;;17.10;99.90;;;;;;4968235;28;20050;-71
2021/05/18 12:40:19;;;;;;;4.60;1.45;;;16.80;99.90;;;;;;4970258;28;20500;-70
2021/05/18 12:42:48;;;;;;;5.35;1.83;;;16.60;99.90;;;;;;4970197;28;20030;-70
2021/05/18 12:45:26;;;;;;;4.57;1.63;;;16.60;99.90;;;;;;4969869;28;20463;-71
2021/05/18 12:47:58;;;;;;;11.05;2.08;;;17.00;99.90;;;;;;4969105;28;20347;-71
2021/05/18 12:50:34;;;;;;;4.10;1.40;;;16.80;99.90;;;;;;4970379;28;20423;-71
2021/05/18 12:53:00;;;;;;;6.47;2.17;;;16.50;99.90;;;;;;4969530;28;20129;-71
2021/05/18 12:55:28;;;;;;;7.55;1.80;;;16.60;99.90;;;;;;4969173;28;20475;-71
2021/05/18 12:58:03;;;;;;;6.95;1.63;;;16.40;99.90;;;;;;4969618;28;20031;-70
2021/05/18 13:00:36;;;;;;;5.38;1.42;;;16.50;99.90;;;;;;4970345;28;20073;-71
2021/05/18 13:03:20;;;;;;;6.40;1.60;;;16.70;99.90;;;;;;4968597;28;20119;-70
2021/05/18 13:05:48;;;;;;;6.45;1.90;;;17.00;99.90;;;;;;4970111;28;20190;-71
2021/05/18 13:08:21;;;;;;;7.50;2.08;;;17.40;99.90;;;;;;4969746;28;20026;-71
2021/05/18 13:13:37;;;;;;;5.45;1.65;;;17.70;99.90;;;;;;4968513;28;20058;-71
2021/05/18 13:16:18;;;;;;;3.30;1.88;;;17.80;99.90;;;;;;4969633;28;20034;-71
2021/05/18 13:19:00;;;;;;;5.57;1.90;;;17.60;99.90;;;;;;4968519;28;20421;-71
2021/05/18 13:21:40;;;;;;;5.60;2.03;;;17.40;99.90;;;;;;4969403;28;20559;-71
2021/05/18 13:26:37;;;;;;;5.93;2.15;;;16.80;99.90;;;;;;4969440;28;20554;-71
2021/05/18 13:29:06;;;;;;;4.32;1.75;;;16.50;99.90;;;;;;4970112;28;20073;-71
2021/05/18 13:31:35;;;;;;;8.05;1.80;;;16.30;99.90;;;;;;4968547;28;20045;-71
2021/05/18 13:34:01;;;;;;;7.57;2.15;;;16.00;99.90;;;;;;4968550;28;20533;-71
2021/05/18 13:36:32;;;;;;;6.53;2.20;;;15.80;99.90;;;;;;4970243;28;20034;-71
2021/05/18 13:39:05;;;;;;;4.82;1.40;;;15.70;99.90;;;;;;4968441;28;20026;-71
2021/05/18 13:41:31;;;;;;;5.40;1.63;;;15.60;99.90;;;;;;4969330;28;20518;-71
2021/05/18 13:43:57;;;;;;;5.68;1.70;;;15.40;99.90;;;;;;4967379;28;20034;-71
2021/05/18 13:46:22;;;;;;;7.05;2.28;;;15.30;99.90;;;;;;4969807;28;20062;-71
2021/05/18 13:48:48;;;;;;;4.63;1.80;;;15.10;99.90;;;;;;4968774;28;20322;-71
2021/05/18 13:51:15;;;;;;;6.15;1.98;;;15.00;99.90;;;;;;4969641;28;20033;-72
2021/05/18 13:53:42;;;;;;;7.72;2.38;;;15.10;99.90;;;;;;4968959;28;20026;-72
2021/05/18 13:56:10;;;;;;;6.90;2.10;;;15.20;99.90;;;;;;4969702;28;20485;-72
2021/05/18 13:58:36;;;;;;;3.35;1.50;;;15.00;99.90;;;;;;4966291;28;20027;-72
2021/05/18 14:01:04;;;;;;;3.63;2.50;;;14.80;99.90;;;;;;4968578;28;20203;-72
2021/05/18 14:03:30;;;;;;;4.78;1.92;;;14.80;99.90;;;;;;5000885;28;20122;-72
2021/05/18 14:05:55;;;;;;;4.85;2.40;;;14.70;99.90;;;;;;4968678;28;20031;-73
2021/05/18 14:08:31;;;;;;;6.18;2.40;;;14.50;99.90;;;;;;4967647;28;20185;-72
2021/05/18 14:11:00;;;;;;;5.95;1.90;;;14.40;99.90;;;;;;4969253;28;20117;-72
2021/05/18 14:13:28;;;;;;;3.67;1.90;;;14.40;99.90;;;;;;4969210;28;20102;-72
2021/05/18 14:15:55;;;;;;;4.13;2.28;;;14.40;99.90;;;;;;4966354;28;20035;-72
2021/05/18 14:18:21;;;;;;;4.18;1.90;;;14.30;99.90;;;;;;4968135;28;20035;-72
2021/05/18 14:20:47;;;;;;;4.43;1.80;;;14.20;99.90;;;;;;4968308;28;20049;-72
2021/05/18 14:23:13;;;;;;;5.28;2.15;;;14.20;99.90;;;;;;4967972;28;20046;-72
2021/05/18 14:25:40;;;;;;;6.25;1.90;;;14.40;99.90;;;;;;4968819;28;20085;-72
2021/05/18 14:28:06;;;;;;;6.90;1.75;;;14.40;99.90;;;;;;4968055;28;20474;-72
2021/05/18 14:30:33;;;;;;;4.47;2.15;;;14.50;99.90;;;;;;4967599;28;20146;-72
2021/05/18 14:32:59;;;;;;;4.18;2.08;;;14.50;99.90;;;;;;4967321;28;20125;-72
2021/05/18 14:35:27;;;;;;;4.43;1.60;;;14.50;99.90;;;;;;4968833;28;20079;-72
2021/05/18 14:38:08;;;;;;;4.50;1.80;;;14.40;99.90;;;;;;4965249;28;20513;-72
2021/05/18 14:41:07;;;;;;;2.85;1.77;;;14.40;99.90;;;;;;4966945;28;20508;-72
2021/05/18 14:56:58;;;;;;;3.78;1.60;;;14.30;99.90;;;;;;4967918;28;20034;-72
2021/05/18 14:59:24;;;;;;;4.38;1.92;;;14.70;99.90;;;;;;4967108;28;20022;-72
2021/05/18 15:01:50;;;;;;;6.80;2.35;;;14.90;99.90;;;;;;4968541;28;20583;-71
2021/05/18 15:04:16;;;;;;;4.55;1.83;;;14.80;99.90;;;;;;4965450;28;20031;-72
2021/05/18 15:06:42;;;;;;;2.45;1.65;;;14.70;99.90;;;;;;4966080;28;20043;-73
2021/05/18 15:09:09;;;;;;;3.42;1.58;;;14.60;99.90;;;;;;4968557;28;20508;-72
2021/05/18 15:11:36;;;;;;;4.00;1.88;;;14.40;99.90;;;;;;4967886;28;20133;-73
2021/05/18 15:14:05;;;;;;;5.20;2.20;;;14.30;99.90;;;;;;4967819;28;20482;-72
2021/05/18 15:16:31;;;;;;;6.07;2.30;;;14.20;99.90;;;;;;4964911;28;20942;-73
2021/05/18 15:19:05;;;;;;;7.13;2.47;;;14.10;99.90;;;;;;4967165;28;20034;-73
2021/05/18 15:21:31;;;;;;;4.97;2.28;;;14.00;99.90;;;;;;4966841;28;20042;-72
2021/05/18 15:23:57;;;;;;;4.47;2.10;;;13.80;99.90;;;;;;4967647;28;20128;-72
2021/05/18 15:26:23;;;;;;;4.60;2.10;;;13.70;99.90;;;;;;4966284;28;20140;-72
2021/05/18 15:28:49;;;;;;;6.95;2.38;;;13.60;99.90;;;;;;4963866;28;20030;-75
2021/05/18 15:31:15;;;;;;;4.85;1.95;;;13.60;99.90;;;;;;4964356;28;20401;-73
2021/05/18 15:33:41;;;;;;;4.15;2.65;;;13.50;99.90;;;;;;4963659;28;20085;-73
2021/05/18 15:36:07;;;;;;;1.95;1.63;;;13.50;99.90;;;;;;4964511;28;20561;-73
2021/05/18 15:38:38;;;;;;;3.58;1.95;;;13.50;99.90;;;;;;4964653;28;20109;-73
2021/05/18 15:41:08;;;;;;;7.05;2.38;;;13.50;99.90;;;;;;4961204;28;20569;-73
2021/05/18 15:43:34;;;;;;;5.13;2.28;;;13.60;99.90;;;;;;4963429;28;20407;-73
2021/05/18 15:46:02;;;;;;;5.22;2.30;;;13.50;99.90;;;;;;4965598;28;20762;-73
2021/05/18 15:48:28;;;;;;;6.80;2.67;;;13.50;99.90;;;;;;4965742;28;20035;-74
2021/05/18 15:50:54;;;;;;;2.78;1.80;;;13.50;99.90;;;;;;4962837;28;20041;-73
2021/05/18 15:53:21;;;;;;;4.40;2.15;;;13.60;99.90;;;;;;4962926;28;20513;-73
2021/05/18 15:55:47;;;;;;;7.47;3.40;;;13.60;99.90;;;;;;4965564;28;20565;-73
2021/05/18 15:58:13;;;;;;;5.18;2.63;;;13.50;99.90;;;;;;4966036;28;20042;-73
2021/05/18 16:00:38;;;;;;;6.22;2.70;;;13.50;99.90;;;;;;4966235;28;20510;-73
2021/05/18 16:03:05;;;;;;;5.07;1.55;;;13.50;99.90;;;;;;4968656;28;20462;-73
2021/05/18 16:05:32;;;;;;;3.80;2.05;;;13.40;99.90;;;;;;4981561;28;20034;-73
2021/05/18 16:10:42;;;;;;;3.63;2.15;;;13.50;99.90;;;;;;4966883;28;20121;-73
2021/05/18 16:13:08;;;;;;;6.65;2.53;;;13.40;99.90;;;;;;4967823;28;20571;-73
2021/05/18 16:15:34;;;;;;;4.90;2.00;;;13.50;99.90;;;;;;4968074;28;20058;-73
2021/05/18 16:18:00;;;;;;;6.05;2.55;;;13.50;99.90;;;;;;4968756;28;20035;-73
2021/05/18 16:20:26;;;;;;;3.42;2.22;;;13.60;99.90;;;;;;4969073;28;20657;-73
2021/05/18 16:22:51;;;;;;;3.83;2.80;;;13.70;99.90;;;;;;4969264;28;20042;-72
2021/05/18 16:25:19;;;;;;;4.68;2.53;;;13.80;99.90;;;;;;4970423;28;20481;-73
2021/05/18 16:27:44;;;;;;;8.50;2.70;;;14.00;99.90;;;;;;4968633;28;20108;-71
2021/05/18 16:30:12;;;;;;;3.88;2.42;;;14.00;99.90;;;;;;4968341;28;20470;-71
2021/05/18 16:32:38;;;;;;;2.45;1.95;;;14.10;99.90;;;;;;4963543;28;20030;-74
2021/05/18 16:35:04;;;;;;;4.78;2.38;;;14.30;99.90;;;;;;4961892;28;20747;-71
2021/05/18 16:37:30;;;;;;;4.78;2.47;;;14.40;99.90;;;;;;4961655;28;20030;-72
2021/05/18 16:39:57;;;;;;;7.95;2.28;;;14.70;99.90;;;;;;4963192;28;20034;-72
2021/05/18 16:42:23;;;;;;;4.15;2.60;;;14.70;99.90;;;;;;4964853;28;20023;-71
2021/05/18 16:44:49;;;;;;;7.15;3.40;;;14.70;99.90;;;;;;4966724;28;20764;-72
2021/05/18 16:47:15;;;;;;;4.25;2.35;;;14.80;99.90;;;;;;4964868;28;20039;-72
2021/05/18 16:49:41;;;;;;;4.50;2.40;;;14.90;99.90;;;;;;4969003;28;20030;-72
2021/05/18 16:52:07;;;;;;;3.92;2.40;;;14.90;99.90;;;;;;4968829;28;20084;-72
2021/05/18 16:54:32;;;;;;;3.60;2.38;;;14.80;99.90;;;;;;4968416;28;20068;-72
2021/05/18 16:56:58;;;;;;;4.32;2.45;;;14.70;99.90;;;;;;4967408;28;20033;-71
2021/05/18 16:59:24;;;;;;;4.13;2.45;;;14.60;99.90;;;;;;4963657;28;20038;-71
2021/05/18 17:01:50;;;;;;;5.10;2.40;;;14.40;99.90;;;;;;4963480;28;20039;-72
2021/05/18 17:04:17;;;;;;;4.00;2.70;;;14.30;99.90;;;;;;4964852;28;20498;-72
2021/05/18 17:06:44;;;;;;;5.40;2.70;;;14.50;99.90;;;;;;4968184;28;20030;-71
2021/05/18 17:09:11;;;;;;;3.85;2.17;;;14.50;99.90;;;;;;4965907;28;20130;-72
2021/05/18 17:11:40;;;;;;;4.97;2.70;;;14.60;99.90;;;;;;4966947;28;20165;-72
2021/05/18 17:14:06;;;;;;;6.63;2.47;;;14.80;99.90;;;;;;4967776;28;20087;-72
2021/05/18 17:16:32;;;;;;;4.25;2.42;;;14.70;99.90;;;;;;4967765;28;20033;-72
2021/05/18 17:18:58;;;;;;;4.22;2.58;;;14.70;99.90;;;;;;4969849;28;20959;-72
2021/05/18 17:21:24;;;;;;;5.65;2.80;;;14.50;99.90;;;;;;4966814;28;20054;-72
2021/05/18 17:23:50;;;;;;;3.83;2.33;;;14.60;99.90;;;;;;4967090;28;20519;-72
2021/05/18 17:26:16;;;;;;;4.93;2.72;;;14.60;99.90;;;;;;4967758;28;20037;-72
2021/05/18 17:28:42;;;;;;;4.28;2.33;;;14.50;99.90;;;;;;4967299;28;20069;-72
2021/05/18 17:31:11;;;;;;;4.82;2.97;;;14.40;99.90;;;;;;4965903;28;20045;-72
2021/05/18 17:33:36;;;;;;;4.18;2.65;;;14.20;99.90;;;;;;4960505;28;20031;-72
2021/05/18 17:36:02;;;;;;;3.97;2.50;;;14.00;99.90;;;;;;4963093;28;20041;-73
2021/05/18 17:38:28;;;;;;;7.13;2.47;;;13.80;99.90;;;;;;4964270;28;20073;-72
2021/05/18 17:40:54;;;;;;;4.57;2.15;;;13.70;99.90;;;;;;4966174;28;20137;-71
2021/05/18 17:43:20;;;;;;;5.00;2.28;;;13.50;99.90;;;;;;4967324;28;20033;-72
2021/05/18 17:45:46;;;;;;;3.03;1.80;;;13.50;99.90;;;;;;4964215;28;20533;-72
2021/05/18 17:48:12;;;;;;;3.38;2.28;;;13.30;99.90;;;;;;4966684;28;20034;-72
2021/05/18 17:50:38;;;;;;;4.15;2.85;;;13.20;99.90;;;;;;4965024;28;20053;-72
2021/05/18 17:53:04;;;;;;;4.72;2.58;;;13.00;99.90;;;;;;4967401;28;20027;-72
2021/05/18 17:55:30;;;;;;;4.22;2.72;;;12.90;99.90;;;;;;4965052;28;20030;-72
2021/05/18 17:57:56;;;;;;;4.80;2.63;;;12.90;99.90;;;;;;4964685;28;20057;-72
2021/05/18 18:00:22;;;;;;;6.38;2.83;;;12.80;99.90;;;;;;4966056;28;20433;-72
2021/05/18 18:02:49;;;;;;;7.80;2.83;;;12.90;99.90;;;;;;4966681;28;20358;-72
2021/05/18 18:05:15;;;;;;;2.47;2.20;;;12.90;99.90;;;;;;4965554;28;20461;-72
2021/05/18 18:07:41;;;;;;;3.90;2.30;;;12.90;99.90;;;;;;4966856;28;20073;-72
2021/05/18 18:10:08;;;;;;;3.70;2.65;;;12.80;99.90;;;;;;4967367;28;20038;-72
2021/05/18 18:12:35;;;;;;;3.95;2.70;;;12.70;99.90;;;;;;4965560;28;20042;-72